Main page
METAR-TAF:

METAR-TAF

Airports :

Campbeltown Airport

Campbeltown, Scotland

latitude: 55-26-14N, longitude: 005-41-11W, elevation: 13 m

Current weather observation

The report was made 6 hours and 36 minutes ago, at 17:20 UTC
Wind 11 kt from the West
Temperature 10°C
Humidity 93%
Pressure 1022 hPa
Visibility 10 km or more
Broken clouds at a height of 1800 ft

METAR: EGEC 191720Z 27011KT 9999 BKN018 10/09 Q1022

Time: 23:56 (23:56 UTC)

Forecast

The report was made 7 hours and 19 minutes ago, at 16:37 UTC
Forecast valid from 19 at 16 UTC to 19 at 18 UTC
Wind 8 kt from the West
Visibility 10 km or more
Broken clouds at a height of 1800 ft
Probability 30% :
Temporary
from 19 at 16 UTC to 19 at 18 UTC
Visibility: 8000 m
Broken clouds at a height of 600 ft
light drizzle

TAF: EGEC 191637Z 1916/1918 28008KT 9999 BKN018 PROB30 TEMPO 1916/1918 8000 -DZ BKN006

Weather observations and forecasts of more than 4000 airports (METAR and TAF reports).

The available stations are represented by yellow and red dots on the map.

Hover mouse over dot to see the name of the station.

Then click to see weather observations and forecasts.

To change the map : click on the green buttons with a black cross to zoom in, on the green button with a dash to zoom out, or on the green arrows for adjacent maps.


METAR-TAF: